Terminal Aerodrome Forecast
Issued by NWS Austin/San Antonio, TX

Home | Current Version | Previous Version | Text Only | Print | Product List | Glossary On
Versions: 1 2 3 4 5 6 7 8 9 10 11 12 13 14
620
FTUS44 KEWX 250520
TAFAUS
TAF
KAUS 250520Z 2506/2612 15007KT P6SM SCT250
     FM251200 19006KT P6SM FEW030 BKN250
     FM251900 01010KT P6SM SCT070 BKN200
     FM252200 36012KT P6SM VCSH BKN035 BKN100
     FM260200 35013KT P6SM OVC050=

USA.gov is the U.S. government's official web portal to all federal, state and local government web resources and services.